TNO1122 KSFO-MMTJ
Flight info
| Callsign | TNO1122 |
|---|---|
| Flight time | 1h 13m |
| Altitude | 37000 |
| Route | WESLA5 SUSEY DCT EBAYE DCT OCN DCT MZB |
| Aircraft | A319/M-SDE3FGHIRWY/LB1 |
Departure
| Time | 2026-05-06 09:10 |
|---|---|
| Airport | San Francisco International Airport (KSFO) |
Arrival
| Time | 2026-05-06 10:23 |
|---|---|
| Airport | General Abelardo L. Rodriguez International Airport (MMTJ) |
| Time | Latitude | Longitude | Altitude | Speed | Heading |
|---|---|---|---|---|---|
| 2026-05-06 08:59 | 37.61859 | -122.38186 | 25 ft | 0 kts | 184° |
| 2026-05-06 09:02 | 37.61858 | -122.38186 | 25 ft | 0 kts | 184° |
| 2026-05-06 09:04 | 37.61860 | -122.38186 | 25 ft | 1 kts | 184° |
| 2026-05-06 09:04 | 37.61874 | -122.38184 | 25 ft | 3 kts | 188° |
| 2026-05-06 09:05 | 37.61893 | -122.38179 | 25 ft | 3 kts | 200° |
| 2026-05-06 09:05 | 37.61895 | -122.38187 | 25 ft | 4 kts | 272° |
| 2026-05-06 09:05 | 37.61907 | -122.38192 | 25 ft | 0 kts | 30° |
| 2026-05-06 09:05 | 37.61911 | -122.38144 | 25 ft | 16 kts | 94° |
| 2026-05-06 09:06 | 37.61917 | -122.38031 | 25 ft | 8 kts | 89° |
| 2026-05-06 09:06 | 37.61882 | -122.37939 | 25 ft | 15 kts | 129° |
| 2026-05-06 09:06 | 37.61812 | -122.37819 | 25 ft | 16 kts | 117° |
| 2026-05-06 09:06 | 37.61781 | -122.37724 | 25 ft | 22 kts | 112° |
| 2026-05-06 09:07 | 37.61705 | -122.37476 | 25 ft | 21 kts | 112° |
| 2026-05-06 09:07 | 37.61659 | -122.37362 | 25 ft | 22 kts | 117° |
| 2026-05-06 09:07 | 37.61570 | -122.37151 | 25 ft | 19 kts | 118° |
| 2026-05-06 09:07 | 37.61531 | -122.37053 | 25 ft | 18 kts | 116° |
| 2026-05-06 09:08 | 37.61457 | -122.36881 | 25 ft | 16 kts | 137° |
| 2026-05-06 09:08 | 37.61402 | -122.36823 | 25 ft | 15 kts | 141° |
| 2026-05-06 09:08 | 37.61335 | -122.36698 | 25 ft | 22 kts | 118° |
| 2026-05-06 09:08 | 37.61251 | -122.36499 | 25 ft | 27 kts | 118° |
| 2026-05-06 09:09 | 37.61174 | -122.36315 | 25 ft | 24 kts | 117° |
| 2026-05-06 09:09 | 37.61106 | -122.36149 | 25 ft | 19 kts | 117° |
| 2026-05-06 09:09 | 37.61049 | -122.35987 | 25 ft | 18 kts | 87° |
| 2026-05-06 09:09 | 37.61114 | -122.35889 | 25 ft | 16 kts | 29° |
| 2026-05-06 09:10 | 37.61190 | -122.35882 | 25 ft | 4 kts | 298° |
| 2026-05-06 09:10 | 37.61228 | -122.35970 | 25 ft | 44 kts | 298° |
| 2026-05-06 09:10 | 37.61566 | -122.36780 | 25 ft | 166 kts | 297° |
| 2026-05-06 09:10 | 37.62247 | -122.38409 | 704 ft | 231 kts | 298° |
| 2026-05-06 09:11 | 37.62996 | -122.40141 | 1183 ft | 220 kts | 298° |
| 2026-05-06 09:11 | 37.63739 | -122.41839 | 1872 ft | 224 kts | 298° |
| 2026-05-06 09:11 | 37.64504 | -122.43579 | 2467 ft | 230 kts | 298° |
| 2026-05-06 09:11 | 37.65280 | -122.45361 | 2896 ft | 235 kts | 297° |
| 2026-05-06 09:12 | 37.65748 | -122.47333 | 3337 ft | 236 kts | 276° |
| 2026-05-06 09:12 | 37.65537 | -122.49381 | 3816 ft | 242 kts | 253° |
| 2026-05-06 09:12 | 37.64665 | -122.51227 | 4279 ft | 249 kts | 231° |
| 2026-05-06 09:12 | 37.63258 | -122.52522 | 4752 ft | 255 kts | 208° |
| 2026-05-06 09:13 | 37.61521 | -122.53059 | 5212 ft | 262 kts | 185° |
| 2026-05-06 09:13 | 37.59713 | -122.52736 | 5667 ft | 266 kts | 162° |
| 2026-05-06 09:13 | 37.58054 | -122.51687 | 6172 ft | 268 kts | 147° |
| 2026-05-06 09:13 | 37.56502 | -122.50366 | 6633 ft | 270 kts | 144° |
| 2026-05-06 09:14 | 37.54928 | -122.49118 | 7076 ft | 271 kts | 148° |
| 2026-05-06 09:14 | 37.53211 | -122.48102 | 7528 ft | 274 kts | 157° |
| 2026-05-06 09:14 | 37.51402 | -122.47302 | 7992 ft | 277 kts | 157° |
| 2026-05-06 09:14 | 37.49684 | -122.46195 | 8458 ft | 278 kts | 148° |
| 2026-05-06 09:15 | 37.48078 | -122.44825 | 8916 ft | 280 kts | 141° |
| 2026-05-06 09:15 | 37.46555 | -122.43285 | 9377 ft | 281 kts | 137° |
| 2026-05-06 09:15 | 37.45092 | -122.41636 | 9832 ft | 282 kts | 134° |
| 2026-05-06 09:15 | 37.43676 | -122.39923 | 10284 ft | 283 kts | 133° |
| 2026-05-06 09:16 | 37.42288 | -122.38168 | 10739 ft | 283 kts | 131° |
| 2026-05-06 09:16 | 37.40920 | -122.36391 | 11189 ft | 282 kts | 130° |
| 2026-05-06 09:16 | 37.39566 | -122.34600 | 11644 ft | 283 kts | 130° |
| 2026-05-06 09:16 | 37.38233 | -122.32818 | 12091 ft | 283 kts | 129° |
| 2026-05-06 09:17 | 37.36890 | -122.31010 | 12537 ft | 283 kts | 129° |
| 2026-05-06 09:17 | 37.35543 | -122.29192 | 12987 ft | 284 kts | 129° |
| 2026-05-06 09:17 | 37.34196 | -122.27368 | 13436 ft | 285 kts | 129° |
| 2026-05-06 09:17 | 37.32838 | -122.25529 | 13889 ft | 288 kts | 129° |
| 2026-05-06 09:18 | 37.31474 | -122.23680 | 14339 ft | 290 kts | 129° |
| 2026-05-06 09:18 | 37.30093 | -122.21808 | 14791 ft | 293 kts | 129° |
| 2026-05-06 09:18 | 37.28699 | -122.19920 | 15242 ft | 296 kts | 129° |
| 2026-05-06 09:18 | 37.27293 | -122.18017 | 15694 ft | 298 kts | 129° |
| 2026-05-06 09:19 | 37.25875 | -122.16100 | 16145 ft | 301 kts | 129° |
| 2026-05-06 09:19 | 37.24445 | -122.14166 | 16596 ft | 304 kts | 129° |
| 2026-05-06 09:19 | 37.23018 | -122.12239 | 17042 ft | 306 kts | 129° |
| 2026-05-06 09:19 | 37.21560 | -122.10271 | 17493 ft | 309 kts | 129° |
| 2026-05-06 09:20 | 37.20090 | -122.08288 | 17945 ft | 312 kts | 128° |
| 2026-05-06 09:20 | 37.18601 | -122.06282 | 18397 ft | 315 kts | 128° |
| 2026-05-06 09:20 | 37.17096 | -122.04254 | 18850 ft | 318 kts | 128° |
| 2026-05-06 09:20 | 37.15588 | -122.02224 | 19301 ft | 320 kts | 128° |
| 2026-05-06 09:21 | 37.14061 | -122.00169 | 19754 ft | 323 kts | 128° |
| 2026-05-06 09:21 | 37.12519 | -121.98098 | 20207 ft | 325 kts | 128° |
| 2026-05-06 09:21 | 37.10992 | -121.96046 | 20643 ft | 328 kts | 128° |
| 2026-05-06 09:21 | 37.09419 | -121.93933 | 21037 ft | 334 kts | 128° |
| 2026-05-06 09:22 | 37.07819 | -121.91784 | 21420 ft | 339 kts | 128° |
| 2026-05-06 09:22 | 37.06203 | -121.89614 | 21798 ft | 343 kts | 128° |
| 2026-05-06 09:22 | 37.04563 | -121.87416 | 22176 ft | 347 kts | 128° |
| 2026-05-06 09:22 | 37.02908 | -121.85199 | 22554 ft | 349 kts | 128° |
| 2026-05-06 09:23 | 37.01240 | -121.82968 | 22930 ft | 352 kts | 128° |
| 2026-05-06 09:23 | 36.99558 | -121.80720 | 23307 ft | 355 kts | 128° |
| 2026-05-06 09:23 | 36.97863 | -121.78456 | 23684 ft | 358 kts | 128° |
| 2026-05-06 09:23 | 36.96154 | -121.76176 | 24061 ft | 360 kts | 128° |
| 2026-05-06 09:24 | 36.94454 | -121.73908 | 24433 ft | 362 kts | 128° |
| 2026-05-06 09:24 | 36.92722 | -121.71602 | 24810 ft | 364 kts | 128° |
| 2026-05-06 09:24 | 36.90983 | -121.69285 | 25186 ft | 367 kts | 128° |
| 2026-05-06 09:24 | 36.89228 | -121.66950 | 25563 ft | 369 kts | 128° |
| 2026-05-06 09:25 | 36.87465 | -121.64607 | 25940 ft | 371 kts | 128° |
| 2026-05-06 09:25 | 36.85695 | -121.62253 | 26316 ft | 373 kts | 128° |
| 2026-05-06 09:25 | 36.83912 | -121.59886 | 26692 ft | 374 kts | 128° |
| 2026-05-06 09:25 | 36.82117 | -121.57504 | 27070 ft | 376 kts | 128° |
| 2026-05-06 09:26 | 36.80339 | -121.55147 | 27441 ft | 378 kts | 128° |
| 2026-05-06 09:26 | 36.78532 | -121.52752 | 27817 ft | 380 kts | 128° |
| 2026-05-06 09:26 | 36.76714 | -121.50346 | 28193 ft | 382 kts | 128° |
| 2026-05-06 09:26 | 36.74888 | -121.47929 | 28569 ft | 384 kts | 128° |
| 2026-05-06 09:27 | 36.73046 | -121.45495 | 28946 ft | 386 kts | 128° |
| 2026-05-06 09:27 | 36.71198 | -121.43053 | 29322 ft | 388 kts | 128° |
| 2026-05-06 09:27 | 36.69346 | -121.40606 | 29698 ft | 390 kts | 128° |
| 2026-05-06 09:27 | 36.67477 | -121.38141 | 30075 ft | 392 kts | 127° |
| 2026-05-06 09:28 | 36.65601 | -121.35665 | 30451 ft | 394 kts | 127° |
| 2026-05-06 09:28 | 36.63717 | -121.33184 | 30826 ft | 395 kts | 127° |
| 2026-05-06 09:28 | 36.61824 | -121.30690 | 31202 ft | 397 kts | 127° |
| 2026-05-06 09:28 | 36.59917 | -121.28181 | 31578 ft | 400 kts | 127° |
| 2026-05-06 09:29 | 36.58001 | -121.25661 | 31954 ft | 402 kts | 127° |
| 2026-05-06 09:29 | 36.56095 | -121.23157 | 32326 ft | 404 kts | 127° |
| 2026-05-06 09:29 | 36.54158 | -121.20615 | 32702 ft | 406 kts | 127° |
| 2026-05-06 09:29 | 36.52196 | -121.18042 | 33080 ft | 408 kts | 127° |
| 2026-05-06 09:30 | 36.50247 | -121.15487 | 33453 ft | 411 kts | 127° |
| 2026-05-06 09:30 | 36.48266 | -121.12893 | 33831 ft | 413 kts | 127° |
| 2026-05-06 09:30 | 36.46274 | -121.10286 | 34209 ft | 415 kts | 127° |
| 2026-05-06 09:30 | 36.44319 | -121.07672 | 34582 ft | 416 kts | 126° |
| 2026-05-06 09:31 | 36.42366 | -121.04983 | 34960 ft | 418 kts | 125° |
| 2026-05-06 09:31 | 36.40454 | -121.02303 | 35331 ft | 419 kts | 124° |
| 2026-05-06 09:31 | 36.38522 | -120.99563 | 35708 ft | 421 kts | 124° |
| 2026-05-06 09:31 | 36.36590 | -120.96802 | 36085 ft | 423 kts | 124° |
| 2026-05-06 09:32 | 36.34675 | -120.94055 | 36458 ft | 425 kts | 124° |
| 2026-05-06 09:32 | 36.32735 | -120.91267 | 36834 ft | 427 kts | 124° |
| 2026-05-06 09:32 | 36.30775 | -120.88446 | 37059 ft | 434 kts | 124° |
| 2026-05-06 09:32 | 36.28787 | -120.85582 | 37161 ft | 441 kts | 124° |
| 2026-05-06 09:33 | 36.26775 | -120.82685 | 37183 ft | 444 kts | 124° |
| 2026-05-06 09:33 | 36.22765 | -120.76941 | 37180 ft | 442 kts | 124° |
| 2026-05-06 09:34 | 36.18734 | -120.71191 | 37180 ft | 442 kts | 124° |
| 2026-05-06 09:34 | 36.14713 | -120.65466 | 37180 ft | 441 kts | 124° |
| 2026-05-06 09:35 | 36.10681 | -120.59734 | 37179 ft | 441 kts | 124° |
| 2026-05-06 09:35 | 36.06650 | -120.54011 | 37180 ft | 441 kts | 124° |
| 2026-05-06 09:36 | 36.02615 | -120.48292 | 37179 ft | 441 kts | 124° |
| 2026-05-06 09:36 | 35.98599 | -120.42608 | 37178 ft | 441 kts | 124° |
| 2026-05-06 09:37 | 35.94566 | -120.36909 | 37177 ft | 440 kts | 124° |
| 2026-05-06 09:37 | 35.90529 | -120.31213 | 37178 ft | 440 kts | 124° |
| 2026-05-06 09:38 | 35.86346 | -120.25664 | 37180 ft | 443 kts | 128° |
| 2026-05-06 09:38 | 35.81905 | -120.20360 | 37177 ft | 445 kts | 130° |
| 2026-05-06 09:39 | 35.77355 | -120.15160 | 37176 ft | 446 kts | 131° |
| 2026-05-06 09:39 | 35.72792 | -120.10030 | 37175 ft | 446 kts | 131° |
| 2026-05-06 09:40 | 35.68199 | -120.04898 | 37173 ft | 446 kts | 131° |
| 2026-05-06 09:40 | 35.61324 | -119.97226 | 37169 ft | 446 kts | 131° |
| 2026-05-06 09:41 | 35.56721 | -119.92092 | 37166 ft | 446 kts | 131° |
| 2026-05-06 09:41 | 35.52119 | -119.86962 | 37163 ft | 447 kts | 131° |
| 2026-05-06 09:42 | 35.47511 | -119.81829 | 37160 ft | 447 kts | 131° |
| 2026-05-06 09:42 | 35.42894 | -119.76689 | 37158 ft | 447 kts | 131° |
| 2026-05-06 09:43 | 35.38310 | -119.71592 | 37161 ft | 447 kts | 131° |
| 2026-05-06 09:43 | 35.33687 | -119.66459 | 37153 ft | 448 kts | 131° |
| 2026-05-06 09:44 | 35.29082 | -119.61354 | 37148 ft | 448 kts | 131° |
| 2026-05-06 09:44 | 35.24452 | -119.56226 | 37145 ft | 448 kts | 131° |
| 2026-05-06 09:45 | 35.19812 | -119.51096 | 37145 ft | 449 kts | 132° |
| 2026-05-06 09:45 | 35.15189 | -119.45994 | 37145 ft | 449 kts | 132° |
| 2026-05-06 09:46 | 35.10558 | -119.40890 | 37138 ft | 449 kts | 132° |
| 2026-05-06 09:46 | 35.05908 | -119.35773 | 37138 ft | 450 kts | 132° |
| 2026-05-06 09:47 | 35.01255 | -119.30661 | 37138 ft | 450 kts | 132° |
| 2026-05-06 09:47 | 34.96600 | -119.25556 | 37138 ft | 450 kts | 132° |
| 2026-05-06 09:48 | 34.91937 | -119.20448 | 37139 ft | 450 kts | 132° |
| 2026-05-06 09:48 | 34.87304 | -119.15383 | 37141 ft | 450 kts | 132° |
| 2026-05-06 09:49 | 34.82633 | -119.10284 | 37142 ft | 451 kts | 132° |
| 2026-05-06 09:49 | 34.77961 | -119.05192 | 37143 ft | 451 kts | 132° |
| 2026-05-06 09:50 | 34.73282 | -119.00101 | 37145 ft | 451 kts | 133° |
| 2026-05-06 09:50 | 34.68606 | -118.95020 | 37143 ft | 451 kts | 133° |
| 2026-05-06 09:51 | 34.63927 | -118.89944 | 37144 ft | 451 kts | 133° |
| 2026-05-06 09:51 | 34.59245 | -118.84873 | 37143 ft | 451 kts | 133° |
| 2026-05-06 09:52 | 34.54576 | -118.79824 | 37141 ft | 451 kts | 133° |
| 2026-05-06 09:52 | 34.49859 | -118.74730 | 36939 ft | 454 kts | 133° |
| 2026-05-06 09:53 | 34.47498 | -118.72183 | 36642 ft | 454 kts | 133° |
| 2026-05-06 09:53 | 34.45941 | -118.70506 | 36437 ft | 452 kts | 133° |
| 2026-05-06 09:53 | 34.42830 | -118.67162 | 36023 ft | 449 kts | 133° |
| 2026-05-06 09:53 | 34.40497 | -118.64658 | 35710 ft | 446 kts | 132° |
| 2026-05-06 09:54 | 34.38179 | -118.62174 | 35397 ft | 443 kts | 132° |
| 2026-05-06 09:54 | 34.36652 | -118.60538 | 35190 ft | 441 kts | 132° |
| 2026-05-06 09:54 | 34.34355 | -118.58079 | 34876 ft | 438 kts | 132° |
| 2026-05-06 09:54 | 34.32080 | -118.55645 | 34564 ft | 435 kts | 131° |
| 2026-05-06 09:55 | 34.29822 | -118.53230 | 34250 ft | 432 kts | 131° |
| 2026-05-06 09:55 | 34.27580 | -118.50835 | 33937 ft | 428 kts | 131° |
| 2026-05-06 09:55 | 34.25354 | -118.48456 | 33623 ft | 425 kts | 131° |
| 2026-05-06 09:55 | 34.23140 | -118.46089 | 33308 ft | 422 kts | 131° |
| 2026-05-06 09:56 | 34.20949 | -118.43749 | 32995 ft | 419 kts | 131° |
| 2026-05-06 09:56 | 34.18772 | -118.41423 | 32681 ft | 416 kts | 131° |
| 2026-05-06 09:56 | 34.16613 | -118.39118 | 32368 ft | 413 kts | 131° |
| 2026-05-06 09:56 | 34.14465 | -118.36826 | 32054 ft | 410 kts | 131° |
| 2026-05-06 09:57 | 34.12362 | -118.34582 | 31745 ft | 408 kts | 131° |
| 2026-05-06 09:57 | 34.10244 | -118.32325 | 31432 ft | 405 kts | 131° |
| 2026-05-06 09:57 | 34.08140 | -118.30085 | 31118 ft | 402 kts | 131° |
| 2026-05-06 09:57 | 34.06051 | -118.27861 | 30805 ft | 400 kts | 130° |
| 2026-05-06 09:58 | 34.03963 | -118.25642 | 30490 ft | 397 kts | 130° |
| 2026-05-06 09:58 | 34.01893 | -118.23443 | 30177 ft | 394 kts | 130° |
| 2026-05-06 09:58 | 33.99843 | -118.21267 | 29863 ft | 392 kts | 130° |
| 2026-05-06 09:58 | 33.97803 | -118.19101 | 29550 ft | 389 kts | 130° |
| 2026-05-06 09:59 | 33.95777 | -118.16950 | 29235 ft | 387 kts | 130° |
| 2026-05-06 09:59 | 33.93758 | -118.14809 | 28921 ft | 385 kts | 130° |
| 2026-05-06 09:59 | 33.91751 | -118.12683 | 28606 ft | 383 kts | 130° |
| 2026-05-06 09:59 | 33.89753 | -118.10566 | 28293 ft | 381 kts | 130° |
| 2026-05-06 10:00 | 33.87765 | -118.08461 | 27979 ft | 380 kts | 130° |
| 2026-05-06 10:00 | 33.85809 | -118.06393 | 27669 ft | 378 kts | 130° |
| 2026-05-06 10:00 | 33.83833 | -118.04303 | 27354 ft | 377 kts | 130° |
| 2026-05-06 10:00 | 33.81865 | -118.02224 | 27041 ft | 375 kts | 130° |
| 2026-05-06 10:01 | 33.79905 | -118.00154 | 26727 ft | 374 kts | 130° |
| 2026-05-06 10:01 | 33.77958 | -117.98098 | 26413 ft | 372 kts | 131° |
| 2026-05-06 10:01 | 33.76008 | -117.96043 | 26099 ft | 371 kts | 131° |
| 2026-05-06 10:01 | 33.74089 | -117.94022 | 25787 ft | 366 kts | 131° |
| 2026-05-06 10:02 | 33.72185 | -117.92027 | 25470 ft | 356 kts | 131° |
| 2026-05-06 10:02 | 33.70350 | -117.90105 | 25156 ft | 351 kts | 131° |
| 2026-05-06 10:02 | 33.68514 | -117.88180 | 24841 ft | 349 kts | 131° |
| 2026-05-06 10:02 | 33.66690 | -117.86264 | 24526 ft | 346 kts | 131° |
| 2026-05-06 10:03 | 33.64878 | -117.84359 | 24211 ft | 345 kts | 131° |
| 2026-05-06 10:03 | 33.63080 | -117.82469 | 23898 ft | 343 kts | 131° |
| 2026-05-06 10:03 | 33.61287 | -117.80584 | 23585 ft | 342 kts | 131° |
| 2026-05-06 10:03 | 33.59504 | -117.78709 | 23271 ft | 340 kts | 131° |
| 2026-05-06 10:04 | 33.57726 | -117.76842 | 22957 ft | 339 kts | 132° |
| 2026-05-06 10:04 | 33.55952 | -117.74982 | 22643 ft | 337 kts | 132° |
| 2026-05-06 10:04 | 33.54215 | -117.73160 | 22334 ft | 336 kts | 132° |
| 2026-05-06 10:04 | 33.52463 | -117.71326 | 22022 ft | 334 kts | 133° |
| 2026-05-06 10:05 | 33.50708 | -117.69490 | 21706 ft | 333 kts | 133° |
| 2026-05-06 10:05 | 33.48967 | -117.67670 | 21393 ft | 331 kts | 133° |
| 2026-05-06 10:05 | 33.47232 | -117.65858 | 21080 ft | 330 kts | 133° |
| 2026-05-06 10:05 | 33.45502 | -117.64054 | 20765 ft | 328 kts | 133° |
| 2026-05-06 10:06 | 33.43785 | -117.62263 | 20452 ft | 327 kts | 134° |
| 2026-05-06 10:06 | 33.42075 | -117.60481 | 20139 ft | 325 kts | 134° |
| 2026-05-06 10:06 | 33.40390 | -117.58727 | 19829 ft | 323 kts | 134° |
| 2026-05-06 10:06 | 33.38687 | -117.56954 | 19514 ft | 322 kts | 134° |
| 2026-05-06 10:07 | 33.36999 | -117.55199 | 19200 ft | 320 kts | 134° |
| 2026-05-06 10:07 | 33.35318 | -117.53451 | 18886 ft | 319 kts | 135° |
| 2026-05-06 10:07 | 33.33667 | -117.51735 | 18577 ft | 317 kts | 135° |
| 2026-05-06 10:07 | 33.32001 | -117.50007 | 18262 ft | 316 kts | 135° |
| 2026-05-06 10:08 | 33.30343 | -117.48285 | 17949 ft | 314 kts | 135° |
| 2026-05-06 10:08 | 33.28697 | -117.46578 | 17636 ft | 313 kts | 135° |
| 2026-05-06 10:08 | 33.27045 | -117.44889 | 17321 ft | 312 kts | 137° |
| 2026-05-06 10:08 | 33.25265 | -117.43405 | 17010 ft | 313 kts | 144° |
| 2026-05-06 10:09 | 33.23365 | -117.42126 | 16700 ft | 313 kts | 149° |
| 2026-05-06 10:09 | 33.21407 | -117.41002 | 16388 ft | 312 kts | 152° |
| 2026-05-06 10:09 | 33.19418 | -117.39983 | 16076 ft | 311 kts | 154° |
| 2026-05-06 10:09 | 33.17409 | -117.39034 | 15763 ft | 309 kts | 156° |
| 2026-05-06 10:10 | 33.15398 | -117.38133 | 15449 ft | 308 kts | 156° |
| 2026-05-06 10:10 | 33.13390 | -117.37263 | 15136 ft | 306 kts | 157° |
| 2026-05-06 10:10 | 33.11408 | -117.36420 | 14826 ft | 305 kts | 158° |
| 2026-05-06 10:10 | 33.09401 | -117.35577 | 14511 ft | 303 kts | 158° |
| 2026-05-06 10:11 | 33.07429 | -117.34752 | 14200 ft | 302 kts | 158° |
| 2026-05-06 10:11 | 33.05441 | -117.33941 | 13887 ft | 300 kts | 158° |
| 2026-05-06 10:11 | 33.03491 | -117.33124 | 13576 ft | 298 kts | 158° |
| 2026-05-06 10:11 | 33.01532 | -117.32294 | 13261 ft | 297 kts | 158° |
| 2026-05-06 10:12 | 32.99590 | -117.31463 | 12948 ft | 295 kts | 158° |
| 2026-05-06 10:12 | 32.97682 | -117.30644 | 12637 ft | 293 kts | 157° |
| 2026-05-06 10:12 | 32.95758 | -117.29818 | 12322 ft | 292 kts | 157° |
| 2026-05-06 10:12 | 32.93839 | -117.28994 | 12006 ft | 291 kts | 157° |
| 2026-05-06 10:13 | 32.91955 | -117.28185 | 11695 ft | 289 kts | 158° |
| 2026-05-06 10:13 | 32.90060 | -117.27365 | 11381 ft | 288 kts | 158° |
| 2026-05-06 10:13 | 32.88202 | -117.26553 | 11070 ft | 286 kts | 158° |
| 2026-05-06 10:13 | 32.86328 | -117.25744 | 10746 ft | 285 kts | 159° |
| 2026-05-06 10:14 | 32.84447 | -117.25027 | 10306 ft | 285 kts | 162° |
| 2026-05-06 10:14 | 32.82522 | -117.24438 | 9858 ft | 284 kts | 166° |
| 2026-05-06 10:14 | 32.80609 | -117.23945 | 9378 ft | 281 kts | 167° |
| 2026-05-06 10:14 | 32.78748 | -117.23531 | 8921 ft | 266 kts | 171° |
| 2026-05-06 10:15 | 32.76942 | -117.23287 | 8426 ft | 261 kts | 174° |
| 2026-05-06 10:15 | 32.75140 | -117.23111 | 7796 ft | 255 kts | 175° |
| 2026-05-06 10:15 | 32.73443 | -117.22964 | 7152 ft | 238 kts | 176° |
| 2026-05-06 10:15 | 32.71822 | -117.22828 | 6514 ft | 227 kts | 176° |
| 2026-05-06 10:16 | 32.70270 | -117.22740 | 5875 ft | 219 kts | 180° |
| 2026-05-06 10:16 | 32.68778 | -117.22805 | 5254 ft | 212 kts | 184° |
| 2026-05-06 10:16 | 32.67313 | -117.22921 | 4624 ft | 208 kts | 185° |
| 2026-05-06 10:16 | 32.65883 | -117.23050 | 3997 ft | 205 kts | 185° |
| 2026-05-06 10:17 | 32.64492 | -117.23176 | 3465 ft | 198 kts | 185° |
| 2026-05-06 10:17 | 32.63179 | -117.23295 | 3503 ft | 184 kts | 185° |
| 2026-05-06 10:17 | 32.61895 | -117.23410 | 3498 ft | 188 kts | 185° |
| 2026-05-06 10:17 | 32.60585 | -117.23528 | 3501 ft | 188 kts | 185° |
| 2026-05-06 10:18 | 32.59280 | -117.23629 | 3497 ft | 190 kts | 182° |
| 2026-05-06 10:18 | 32.58008 | -117.23225 | 3494 ft | 192 kts | 154° |
| 2026-05-06 10:18 | 32.57040 | -117.22104 | 3518 ft | 199 kts | 124° |
| 2026-05-06 10:18 | 32.56627 | -117.20562 | 3516 ft | 200 kts | 97° |
| 2026-05-06 10:19 | 32.56666 | -117.18908 | 3558 ft | 200 kts | 85° |
| 2026-05-06 10:19 | 32.56717 | -117.17275 | 3505 ft | 198 kts | 89° |
| 2026-05-06 10:19 | 32.56624 | -117.15696 | 3517 ft | 180 kts | 95° |
| 2026-05-06 10:19 | 32.56438 | -117.14285 | 3421 ft | 173 kts | 99° |
| 2026-05-06 10:20 | 32.56228 | -117.12877 | 3112 ft | 172 kts | 99° |
| 2026-05-06 10:20 | 32.56031 | -117.11482 | 2818 ft | 170 kts | 98° |
| 2026-05-06 10:20 | 32.55852 | -117.10131 | 2535 ft | 167 kts | 98° |
| 2026-05-06 10:20 | 32.55674 | -117.08777 | 2281 ft | 165 kts | 98° |
| 2026-05-06 10:21 | 32.55498 | -117.07434 | 2047 ft | 163 kts | 98° |
| 2026-05-06 10:21 | 32.55323 | -117.06123 | 1808 ft | 161 kts | 98° |
| 2026-05-06 10:21 | 32.55148 | -117.04813 | 1602 ft | 160 kts | 98° |
| 2026-05-06 10:21 | 32.54973 | -117.03529 | 1392 ft | 158 kts | 98° |
| 2026-05-06 10:22 | 32.54798 | -117.02243 | 1182 ft | 156 kts | 98° |
| 2026-05-06 10:22 | 32.54640 | -117.00969 | 991 ft | 157 kts | 97° |
| 2026-05-06 10:22 | 32.54477 | -116.99699 | 752 ft | 154 kts | 98° |
| 2026-05-06 10:22 | 32.54311 | -116.98497 | 556 ft | 143 kts | 98° |
| 2026-05-06 10:23 | 32.54171 | -116.97454 | 501 ft | 107 kts | 98° |
| 2026-05-06 10:23 | 32.54077 | -116.96749 | 501 ft | 78 kts | 99° |
| 2026-05-06 10:23 | 32.54000 | -116.96202 | 501 ft | 54 kts | 99° |
| 2026-05-06 10:23 | 32.53950 | -116.95818 | 501 ft | 41 kts | 99° |
| 2026-05-06 10:24 | 32.53915 | -116.95545 | 501 ft | 24 kts | 98° |
| 2026-05-06 10:24 | 32.53965 | -116.95451 | 501 ft | 12 kts | 8° |
| 2026-05-06 10:24 | 32.54070 | -116.95439 | 501 ft | 14 kts | 343° |
| 2026-05-06 10:24 | 32.54106 | -116.95534 | 501 ft | 13 kts | 279° |
| 2026-05-06 10:25 | 32.54116 | -116.95608 | 501 ft | 5 kts | 279° |
| 2026-05-06 10:25 | 32.54118 | -116.95622 | 501 ft | 0 kts | 279° |
| 2026-05-06 10:25 | 32.54127 | -116.95685 | 501 ft | 24 kts | 279° |
| 2026-05-06 10:25 | 32.54155 | -116.95875 | 501 ft | 23 kts | 280° |
| 2026-05-06 10:26 | 32.54180 | -116.96043 | 501 ft | 20 kts | 280° |
| 2026-05-06 10:26 | 32.54205 | -116.96209 | 501 ft | 21 kts | 280° |
| 2026-05-06 10:26 | 32.54227 | -116.96370 | 501 ft | 19 kts | 278° |
| 2026-05-06 10:26 | 32.54246 | -116.96519 | 501 ft | 17 kts | 278° |
| 2026-05-06 10:27 | 32.54265 | -116.96658 | 501 ft | 19 kts | 279° |
| 2026-05-06 10:27 | 32.54286 | -116.96818 | 501 ft | 21 kts | 279° |
| 2026-05-06 10:27 | 32.54311 | -116.96982 | 501 ft | 17 kts | 280° |
| 2026-05-06 10:27 | 32.54329 | -116.97109 | 501 ft | 16 kts | 279° |
| 2026-05-06 10:28 | 32.54350 | -116.97267 | 501 ft | 17 kts | 278° |
| 2026-05-06 10:28 | 32.54372 | -116.97379 | 501 ft | 12 kts | 301° |
| 2026-05-06 10:28 | 32.54431 | -116.97383 | 501 ft | 8 kts | 62° |
| 2026-05-06 10:28 | 32.54425 | -116.97331 | 501 ft | 0 kts | 111° |